Mesabi — V7CU6 — position and weather

sailwx.info

Track history (hours):
 
Tides and Currents Weather Stations Pressure Air Temp Water Temp Dewpoint Dewpoint Depression Visibility Wind Speed Wind Dir Waves Ship Positions

Mesabi

Last reported at 2018-Jun-22 21:32 UTC. Time now 2018-Jun-22 22:38 UTC.
Position N 29°19' W 094°34'.

Length 127 m; draft 5.6 m.

Type: Ship. MMSI: 538006827.

Date/timePositionNaut miles runAvg speedWind from/ knotsBaromVisibWave heightAir tempDewpointWater temp
2018-Jun-22 21:32N 29°19' W 094°34'0 0.0
2018-Jun-22 19:38N 29°19' W 094°34'0 0.0
2018-Jun-22 18:08N 29°19' W 094°34'0 0.0
2018-Jun-22 17:56N 29°19' W 094°34'0 0.0
2018-Jun-22 12:56N 29°19' W 094°34'0 0.1
2018-Jun-22 12:26N 29°19' W 094°34'0 0.1
2018-Jun-22 10:38N 29°19' W 094°35'0 0.1
2018-Jun-22 10:26N 29°19' W 094°35'0 0.0
2018-Jun-22 05:26N 29°19' W 094°34'0 0.0
2018-Jun-22 04:44N 29°19' W 094°34'0 0.0
2018-Jun-22 04:26N 29°19' W 094°34'0 0.0
2018-Jun-22 03:20N 29°19' W 094°34'0 0.0
2018-Jun-22 01:56N 29°19' W 094°34'0 0.0
2018-Jun-22 01:26N 29°19' W 094°34'0 0.0
2018-Jun-22 00:56N 29°19' W 094°34'0 0.0
2018-Jun-22 00:26N 29°19' W 094°34'0 0.0
2018-Jun-21 23:56N 29°19' W 094°34'0 0.0
2018-Jun-21 23:20N 29°19' W 094°34'0 0.0
2018-Jun-21 22:56N 29°19' W 094°34'0 0.0
2018-Jun-21 22:26N 29°19' W 094°34'0 0.0
2018-Jun-21 21:56N 29°19' W 094°34'0 0.0
2018-Jun-21 21:26N 29°19' W 094°34'0 0.0
2018-Jun-21 20:56N 29°19' W 094°34'0 0.0
2018-Jun-21 20:26N 29°19' W 094°34'0 0.0
2018-Jun-21 19:56N 29°19' W 094°34'0 0.0
2018-Jun-21 19:20N 29°19' W 094°34'0 0.0
2018-Jun-21 18:38N 29°19' W 094°34'0 0.0
2018-Jun-21 18:08N 29°19' W 094°34'0 0.0
2018-Jun-21 17:56N 29°19' W 094°34'0 0.0
2018-Jun-21 17:02N 29°19' W 094°35'0 0.1
2018-Jun-21 16:56N 29°19' W 094°35'0 0.0
2018-Jun-21 16:26N 29°19' W 094°35'0 0.0
2018-Jun-21 15:50N 29°19' W 094°35'0 0.0
2018-Jun-21 13:08N 29°19' W 094°35'0 0.0
2018-Jun-21 12:56N 29°19' W 094°35'0 0.0
2018-Jun-21 12:26N 29°19' W 094°35'0 0.0
2018-Jun-21 11:50N 29°19' W 094°35'0 0.0
2018-Jun-21 08:41N 29°19' W 094°35'1 6.7
2018-Jun-21 08:29N 29°19' W 094°36'510.2
2018-Jun-21 08:00N 29°20' W 094°41'3 6.6
2018-Jun-21 07:29N 29°21' W 094°45'0 0.0
2018-Jun-21 06:59N 29°21' W 094°45'0 0.0
2018-Jun-21 06:23N 29°21' W 094°45'0 0.0
2018-Jun-21 05:59N 29°21' W 094°45'0 0.1
2018-Jun-21 05:29N 29°21' W 094°45'0 0.0
2018-Jun-21 04:59N 29°21' W 094°45'0 0.1
2018-Jun-21 04:29N 29°21' W 094°45'0 0.1
2018-Jun-21 03:59N 29°21' W 094°45'0 0.0
2018-Jun-21 03:29N 29°21' W 094°45'0 0.0
2018-Jun-21 02:53N 29°21' W 094°45'0 0.0
2018-Jun-21 02:29N 29°21' W 094°45'0 0.0
2018-Jun-21 01:59N 29°21' W 094°45'0 0.0
2018-Jun-21 01:29N 29°21' W 094°45'0 0.0
2018-Jun-21 00:59N 29°21' W 094°45'0 0.0
2018-Jun-21 00:23N 29°21' W 094°45'0 0.1
2018-Jun-20 23:59N 29°21' W 094°45'0 0.0
2018-Jun-20 23:29N 29°21' W 094°45'0 0.0
2018-Jun-20 22:59N 29°21' W 094°45'0 0.2
2018-Jun-20 22:29N 29°21' W 094°45'0 0.0
2018-Jun-20 21:53N 29°21' W 094°45'1 3.0
2018-Jun-20 21:30N 29°21' W 094°44'510.1
2018-Jun-20 21:00N 29°19' W 094°39'6 9.8
2018-Jun-20 20:24N 29°17' W 094°32'0 0.1
2018-Jun-20 14:55N 29°17' W 094°32'0 0.0
2018-Jun-20 13:37N 29°17' W 094°32'0 0.0
2018-Jun-20 00:49N 29°17' W 094°32'0 0.0
2018-Jun-19 22:31N 29°17' W 094°32'0 0.0
2018-Jun-19 22:13N 29°17' W 094°32'0 0.0
2018-Jun-19 21:49N 29°17' W 094°32'0 0.0
2018-Jun-19 21:13N 29°17' W 094°32'0 0.0
2018-Jun-19 19:01N 29°17' W 094°32'0 0.0
2018-Jun-19 09:37N 29°17' W 094°32'0 0.1
2018-Jun-19 08:07N 29°17' W 094°32'0 0.1
2018-Jun-19 06:36N 29°17' W 094°32'0 0.0
2018-Jun-19 03:54N 29°17' W 094°32'0 0.0
2018-Jun-18 13:48N 29°17' W 094°32'0 0.0
2018-Jun-16 22:48N 29°17' W 094°32'0 0.0
2018-Jun-16 22:18N 29°17' W 094°32'0 0.1
2018-Jun-16 22:00N 29°17' W 094°32'0 0.0
2018-Jun-16 21:30N 29°17' W 094°32'0 0.0
2018-Jun-16 20:42N 29°17' W 094°32'0 0.0
2018-Jun-16 20:30N 29°17' W 094°32'0 0.0
2018-Jun-16 19:54N 29°17' W 094°32'0 0.0
2018-Jun-16 18:18N 29°17' W 094°32'0 0.9
2018-Jun-16 18:00N 29°17' W 094°32'  
Track history (hours):
 
Tides and Currents Weather Stations Pressure Air Temp Water Temp Dewpoint Dewpoint Depression Visibility Wind Speed Wind Dir Waves Ship Positions

Mesabi

Last reported at 2018-Jun-22 21:32 UTC. Time now 2018-Jun-22 22:38 UTC.
Position N 29°19' W 094°34'.

Length 127 m; draft 5.6 m.

Type: Ship. MMSI: 538006827.

Date/timePositionNaut miles runAvg speedWind from/ knotsBaromVisibWave heightAir tempDewpointWater temp
2018-Jun-22 21:32N 29°19' W 094°34'0 0.0
2018-Jun-22 19:38N 29°19' W 094°34'0 0.0
2018-Jun-22 18:08N 29°19' W 094°34'0 0.0
2018-Jun-22 17:56N 29°19' W 094°34'0 0.0
2018-Jun-22 12:56N 29°19' W 094°34'0 0.1
2018-Jun-22 12:26N 29°19' W 094°34'0 0.1
2018-Jun-22 10:38N 29°19' W 094°35'0 0.1
2018-Jun-22 10:26N 29°19' W 094°35'0 0.0
2018-Jun-22 05:26N 29°19' W 094°34'0 0.0
2018-Jun-22 04:44N 29°19' W 094°34'0 0.0
2018-Jun-22 04:26N 29°19' W 094°34'0 0.0
2018-Jun-22 03:20N 29°19' W 094°34'0 0.0
2018-Jun-22 01:56N 29°19' W 094°34'0 0.0
2018-Jun-22 01:26N 29°19' W 094°34'0 0.0
2018-Jun-22 00:56N 29°19' W 094°34'0 0.0
2018-Jun-22 00:26N 29°19' W 094°34'0 0.0
2018-Jun-21 23:56N 29°19' W 094°34'0 0.0
2018-Jun-21 23:20N 29°19' W 094°34'0 0.0
2018-Jun-21 22:56N 29°19' W 094°34'0 0.0
2018-Jun-21 22:26N 29°19' W 094°34'0 0.0
2018-Jun-21 21:56N 29°19' W 094°34'0 0.0
2018-Jun-21 21:26N 29°19' W 094°34'0 0.0
2018-Jun-21 20:56N 29°19' W 094°34'0 0.0
2018-Jun-21 20:26N 29°19' W 094°34'0 0.0
2018-Jun-21 19:56N 29°19' W 094°34'0 0.0
2018-Jun-21 19:20N 29°19' W 094°34'0 0.0
2018-Jun-21 18:38N 29°19' W 094°34'0 0.0
2018-Jun-21 18:08N 29°19' W 094°34'0 0.0
2018-Jun-21 17:56N 29°19' W 094°34'0 0.0
2018-Jun-21 17:02N 29°19' W 094°35'0 0.1
2018-Jun-21 16:56N 29°19' W 094°35'0 0.0
2018-Jun-21 16:26N 29°19' W 094°35'0 0.0
2018-Jun-21 15:50N 29°19' W 094°35'0 0.0
2018-Jun-21 13:08N 29°19' W 094°35'0 0.0
2018-Jun-21 12:56N 29°19' W 094°35'0 0.0
2018-Jun-21 12:26N 29°19' W 094°35'0 0.0
2018-Jun-21 11:50N 29°19' W 094°35'0 0.0
2018-Jun-21 08:41N 29°19' W 094°35'1 6.7
2018-Jun-21 08:29N 29°19' W 094°36'510.2
2018-Jun-21 08:00N 29°20' W 094°41'3 6.6
2018-Jun-21 07:29N 29°21' W 094°45'0 0.0
2018-Jun-21 06:59N 29°21' W 094°45'0 0.0
2018-Jun-21 06:23N 29°21' W 094°45'0 0.0
2018-Jun-21 05:59N 29°21' W 094°45'0 0.1
2018-Jun-21 05:29N 29°21' W 094°45'0 0.0
2018-Jun-21 04:59N 29°21' W 094°45'0 0.1
2018-Jun-21 04:29N 29°21' W 094°45'0 0.1
2018-Jun-21 03:59N 29°21' W 094°45'0 0.0
2018-Jun-21 03:29N 29°21' W 094°45'0 0.0
2018-Jun-21 02:53N 29°21' W 094°45'0 0.0
2018-Jun-21 02:29N 29°21' W 094°45'0 0.0
2018-Jun-21 01:59N 29°21' W 094°45'0 0.0
2018-Jun-21 01:29N 29°21' W 094°45'0 0.0
2018-Jun-21 00:59N 29°21' W 094°45'0 0.0
2018-Jun-21 00:23N 29°21' W 094°45'0 0.1
2018-Jun-20 23:59N 29°21' W 094°45'0 0.0
2018-Jun-20 23:29N 29°21' W 094°45'0 0.0
2018-Jun-20 22:59N 29°21' W 094°45'0 0.2
2018-Jun-20 22:29N 29°21' W 094°45'0 0.0
2018-Jun-20 21:53N 29°21' W 094°45'1 3.0
2018-Jun-20 21:30N 29°21' W 094°44'510.1
2018-Jun-20 21:00N 29°19' W 094°39'6 9.8
2018-Jun-20 20:24N 29°17' W 094°32'0 0.1
2018-Jun-20 14:55N 29°17' W 094°32'0 0.0
2018-Jun-20 13:37N 29°17' W 094°32'0 0.0
2018-Jun-20 00:49N 29°17' W 094°32'0 0.0
2018-Jun-19 22:31N 29°17' W 094°32'0 0.0
2018-Jun-19 22:13N 29°17' W 094°32'0 0.0
2018-Jun-19 21:49N 29°17' W 094°32'0 0.0
2018-Jun-19 21:13N 29°17' W 094°32'0 0.0
2018-Jun-19 19:01N 29°17' W 094°32'0 0.0
2018-Jun-19 09:37N 29°17' W 094°32'0 0.1
2018-Jun-19 08:07N 29°17' W 094°32'0 0.1
2018-Jun-19 06:36N 29°17' W 094°32'0 0.0
2018-Jun-19 03:54N 29°17' W 094°32'0 0.0
2018-Jun-18 13:48N 29°17' W 094°32'0 0.0
2018-Jun-16 22:48N 29°17' W 094°32'0 0.0
2018-Jun-16 22:18N 29°17' W 094°32'0 0.1
2018-Jun-16 22:00N 29°17' W 094°32'0 0.0
2018-Jun-16 21:30N 29°17' W 094°32'0 0.0
2018-Jun-16 20:42N 29°17' W 094°32'0 0.0
2018-Jun-16 20:30N 29°17' W 094°32'0 0.0
2018-Jun-16 19:54N 29°17' W 094°32'0 0.0
2018-Jun-16 18:18N 29°17' W 094°32'0 0.9
2018-Jun-16 18:00N 29°17' W 094°32'  

Dump ship's entire track history